createdAt,value
2018-12-27T00:01:24.545Z,-0.80
2018-12-27T00:04:12.244Z,-0.70
2018-12-27T00:07:00.260Z,-0.80
2018-12-27T00:09:47.979Z,-0.80
2018-12-27T00:12:35.721Z,-0.80
2018-12-27T00:15:23.767Z,-0.80
2018-12-27T00:18:11.459Z,-0.90
2018-12-27T00:20:59.164Z,-0.90
2018-12-27T00:23:46.850Z,-0.90
2018-12-27T00:26:34.548Z,-0.90
2018-12-27T00:29:22.249Z,-0.90
2018-12-27T00:32:03.484Z,-0.80
2018-12-27T00:34:44.110Z,-0.80
2018-12-27T00:37:24.590Z,-0.80
2018-12-27T00:40:05.316Z,-0.90
2018-12-27T00:42:46.032Z,-0.90
2018-12-27T00:45:26.916Z,-0.90
2018-12-27T00:48:07.289Z,-0.90
2018-12-27T00:50:48.064Z,-0.90
2018-12-27T00:53:29.049Z,-0.80
2018-12-27T00:56:09.900Z,-0.90
2018-12-27T00:58:50.391Z,-0.80
2018-12-27T01:01:31.278Z,-0.80
2018-12-27T01:04:12.096Z,-0.80
2018-12-27T01:06:52.883Z,-0.80
2018-12-27T01:09:33.898Z,-0.70
2018-12-27T01:12:14.437Z,-0.70
2018-12-27T01:14:55.234Z,-0.70
2018-12-27T01:17:36.272Z,-0.70
2018-12-27T01:20:17.058Z,-0.80
2018-12-27T01:22:57.887Z,-0.80
2018-12-27T01:25:38.437Z,-0.80
2018-12-27T01:28:19.080Z,-0.80
2018-12-27T01:30:59.825Z,-0.70
2018-12-27T01:33:40.611Z,-0.70
2018-12-27T01:36:21.366Z,-0.70
2018-12-27T01:39:02.172Z,-0.70
2018-12-27T01:41:42.608Z,-0.70
2018-12-27T01:44:23.333Z,-0.70
2018-12-27T01:47:04.049Z,-0.70
2018-12-27T01:49:44.775Z,-0.60
2018-12-27T01:52:25.726Z,-0.60
2018-12-27T01:55:06.416Z,-0.60
2018-12-27T01:57:46.911Z,-0.60
2018-12-27T02:00:27.614Z,-0.60
2018-12-27T02:03:08.668Z,-0.60
2018-12-27T02:05:49.442Z,-0.60
2018-12-27T02:08:30.183Z,-0.60
2018-12-27T02:11:10.936Z,-0.50
2018-12-27T02:13:51.566Z,-0.60
2018-12-27T02:16:31.922Z,-0.60
2018-12-27T02:19:12.846Z,-0.60
2018-12-27T02:21:53.630Z,-0.60
2018-12-27T02:24:34.377Z,-0.50
2018-12-27T02:27:15.269Z,-0.50
2018-12-27T02:29:55.919Z,-0.50
2018-12-27T02:32:36.648Z,-0.50
2018-12-27T02:35:17.562Z,-0.50
2018-12-27T02:37:58.091Z,-0.50
2018-12-27T02:40:38.601Z,-0.50
2018-12-27T02:43:19.210Z,-0.50
2018-12-27T02:45:59.716Z,-0.50
2018-12-27T02:48:40.412Z,-0.50
2018-12-27T02:51:20.859Z,-0.50
2018-12-27T02:54:01.832Z,-0.40
2018-12-27T02:56:42.472Z,-0.50
2018-12-27T02:59:22.957Z,-0.50
2018-12-27T03:02:03.625Z,-0.50
2018-12-27T03:04:44.294Z,-0.50
2018-12-27T03:07:25.084Z,-0.40
2018-12-27T03:10:05.917Z,-0.40
2018-12-27T03:12:46.581Z,-0.40
2018-12-27T03:15:27.510Z,-0.40
2018-12-27T03:18:08.273Z,-0.40
2018-12-27T03:20:49.340Z,-0.40
2018-12-27T03:23:30.204Z,-0.40
2018-12-27T03:26:11.111Z,-0.40
2018-12-27T03:28:51.684Z,-0.40
2018-12-27T03:31:32.522Z,-0.40
2018-12-27T03:34:12.992Z,-0.40
2018-12-27T03:36:53.500Z,-0.40
2018-12-27T03:39:33.791Z,-0.50
2018-12-27T03:42:14.889Z,-0.40
2018-12-27T03:44:55.679Z,-0.40
2018-12-27T03:47:36.688Z,-0.40
2018-12-27T03:50:17.494Z,-0.50
2018-12-27T03:52:58.342Z,-0.40
2018-12-27T03:55:39.095Z,-0.40
2018-12-27T03:58:19.758Z,-0.40
2018-12-27T04:01:00.499Z,-0.50
2018-12-27T04:03:41.371Z,-0.40
2018-12-27T04:06:22.139Z,-0.40
2018-12-27T04:09:02.729Z,-0.40
2018-12-27T04:11:43.840Z,-0.40
2018-12-27T04:14:24.581Z,-0.40
2018-12-27T04:17:05.427Z,-0.40
2018-12-27T04:19:46.135Z,-0.40
2018-12-27T04:22:26.887Z,-0.40
2018-12-27T04:25:07.298Z,-0.30
2018-12-27T04:27:47.628Z,-0.30
2018-12-27T04:30:28.133Z,-0.30
2018-12-27T04:33:09.036Z,-0.40
2018-12-27T04:35:49.458Z,-0.30
2018-12-27T04:38:30.259Z,-0.40
2018-12-27T04:41:10.664Z,-0.40
2018-12-27T04:43:51.353Z,-0.40
2018-12-27T04:46:32.136Z,-0.40
2018-12-27T04:49:12.845Z,-0.40
2018-12-27T04:51:53.210Z,-0.40
2018-12-27T04:54:34.506Z,-0.50
2018-12-27T04:57:15.681Z,-0.40
2018-12-27T04:59:56.564Z,-0.40
2018-12-27T05:02:36.914Z,-0.40
2018-12-27T05:05:17.873Z,-0.40
2018-12-27T05:07:58.390Z,-0.50
2018-12-27T05:10:39.228Z,-0.40
2018-12-27T05:13:20.100Z,-0.40
2018-12-27T05:16:01.151Z,-0.40
2018-12-27T05:18:41.848Z,-0.40
2018-12-27T05:21:22.796Z,-0.40
2018-12-27T05:24:03.529Z,-0.50
2018-12-27T05:26:44.388Z,-0.40
2018-12-27T05:29:25.062Z,-0.40
2018-12-27T05:32:05.890Z,-0.40
2018-12-27T05:34:46.784Z,-0.40
2018-12-27T05:37:27.589Z,-0.40
2018-12-27T05:40:08.572Z,-0.40
2018-12-27T05:42:49.026Z,-0.50
2018-12-27T05:45:29.517Z,-0.40
2018-12-27T05:48:10.508Z,-0.40
2018-12-27T05:50:50.980Z,-0.40
2018-12-27T05:53:31.792Z,-0.50
2018-12-27T05:56:12.564Z,-0.40
2018-12-27T05:58:53.143Z,-0.40
2018-12-27T06:01:34.106Z,-0.40
2018-12-27T06:04:15.139Z,-0.40
2018-12-27T06:06:55.863Z,-0.40
2018-12-27T06:09:36.828Z,-0.40
2018-12-27T06:12:17.601Z,-0.40
2018-12-27T06:14:58.549Z,-0.40
2018-12-27T06:17:39.161Z,-0.40
2018-12-27T06:20:19.971Z,-0.40
2018-12-27T06:23:00.736Z,-0.30
2018-12-27T06:25:41.561Z,-0.30
2018-12-27T06:28:22.090Z,-0.40
2018-12-27T06:31:02.828Z,-0.30
2018-12-27T06:33:43.284Z,-0.40
2018-12-27T06:36:23.616Z,-0.40
2018-12-27T06:39:04.882Z,-0.40
2018-12-27T06:41:45.907Z,-0.30
2018-12-27T06:44:26.372Z,-0.30
2018-12-27T06:47:07.192Z,-0.30
2018-12-27T06:49:47.909Z,-0.30
2018-12-27T06:52:28.907Z,-0.30
2018-12-27T06:55:09.384Z,-0.20
2018-12-27T06:57:50.100Z,-0.20
2018-12-27T07:00:31.113Z,-0.20
2018-12-27T07:03:12.128Z,-0.20
2018-12-27T07:05:53.110Z,-0.20
2018-12-27T07:08:33.800Z,-0.20
2018-12-27T07:11:14.383Z,-0.30
2018-12-27T07:13:55.332Z,-0.20
2018-12-27T07:16:36.456Z,-0.20
2018-12-27T07:19:17.191Z,-0.10
2018-12-27T07:21:57.779Z,-0.20
2018-12-27T07:24:38.500Z,-0.10
2018-12-27T07:27:19.720Z,-0.10
2018-12-27T07:30:00.327Z,-0.10
2018-12-27T07:32:41.152Z,-0.10
2018-12-27T07:35:22.148Z,-0.10
2018-12-27T07:38:02.827Z,-0.10
2018-12-27T07:40:43.807Z,-0.10
2018-12-27T07:43:24.222Z,0.00
2018-12-27T07:46:10.865Z,-0.20
2018-12-27T07:48:47.688Z,0.00
2018-12-27T07:51:28.418Z,0.00
2018-12-27T07:54:09.557Z,-0.10
2018-12-27T07:56:49.811Z,-0.10
2018-12-27T07:59:30.798Z,0.00
2018-12-27T08:02:11.423Z,0.00
2018-12-27T08:04:52.160Z,0.00
2018-12-27T08:07:33.189Z,-0.10
2018-12-27T08:10:13.772Z,0.00
2018-12-27T08:12:54.579Z,-0.10
2018-12-27T08:15:35.462Z,-0.10
2018-12-27T08:18:15.964Z,-0.10
2018-12-27T08:20:59.486Z,-0.10
2018-12-27T08:23:40.234Z,-0.10
2018-12-27T08:26:21.549Z,-0.10
2018-12-27T08:29:02.023Z,0.00
2018-12-27T08:31:42.877Z,-0.10
2018-12-27T08:34:23.720Z,-0.10
2018-12-27T08:37:04.396Z,-0.10
2018-12-27T08:39:45.049Z,-0.10
2018-12-27T08:42:25.788Z,0.00
2018-12-27T08:45:06.343Z,0.00
2018-12-27T08:47:47.302Z,0.00
2018-12-27T08:50:27.824Z,0.00
2018-12-27T08:53:08.648Z,0.10
2018-12-27T08:55:49.440Z,0.00
2018-12-27T08:58:29.760Z,0.10
2018-12-27T09:01:10.412Z,0.10
2018-12-27T09:03:51.214Z,0.10
2018-12-27T09:06:32.209Z,0.20
2018-12-27T09:09:13.390Z,0.10
2018-12-27T09:11:54.550Z,0.10
2018-12-27T09:14:35.398Z,0.10
2018-12-27T09:17:16.051Z,0.10
2018-12-27T09:19:56.732Z,0.10
2018-12-27T09:22:37.771Z,0.10
2018-12-27T09:25:18.568Z,0.10
2018-12-27T09:27:59.206Z,0.10
2018-12-27T09:30:40.090Z,0.10
2018-12-27T09:33:20.884Z,0.20
2018-12-27T09:36:01.846Z,0.30
2018-12-27T09:38:42.657Z,0.20
2018-12-27T09:41:22.987Z,0.20
2018-12-27T09:44:04.008Z,0.20
2018-12-27T09:46:44.778Z,0.30
2018-12-27T09:49:25.895Z,0.30
2018-12-27T09:52:04.534Z,0.30
2018-12-27T09:54:52.215Z,0.20
2018-12-27T09:57:40.213Z,0.20
2018-12-27T10:00:27.971Z,0.30
2018-12-27T10:03:15.674Z,0.30
2018-12-27T10:06:04.600Z,0.30
2018-12-27T10:08:53.076Z,0.30
2018-12-27T10:11:40.788Z,0.30
2018-12-27T10:14:28.488Z,0.30
2018-12-27T10:17:16.484Z,0.30
2018-12-27T10:20:04.440Z,0.40
2018-12-27T10:22:52.138Z,0.40
2018-12-27T10:25:40.185Z,0.40
2018-12-27T10:28:27.887Z,0.40
2018-12-27T10:31:15.571Z,0.40
2018-12-27T10:33:55.826Z,0.40
2018-12-27T10:36:36.579Z,0.30
2018-12-27T10:39:17.264Z,0.40
2018-12-27T10:41:58.482Z,0.40
2018-12-27T10:44:39.327Z,0.40
2018-12-27T10:47:19.857Z,0.40
2018-12-27T10:50:00.326Z,0.50
2018-12-27T10:52:40.853Z,0.50
2018-12-27T10:55:21.276Z,0.50
2018-12-27T10:58:02.090Z,0.50
2018-12-27T11:00:42.909Z,0.50
2018-12-27T11:03:30.275Z,0.60
2018-12-27T11:06:06.257Z,0.50
2018-12-27T11:08:47.144Z,0.60
2018-12-27T11:11:27.512Z,0.50
2018-12-27T11:14:08.281Z,0.50
2018-12-27T11:16:49.095Z,0.50
2018-12-27T11:19:30.040Z,0.40
2018-12-27T11:22:10.914Z,0.50
2018-12-27T11:24:51.386Z,0.50
2018-12-27T11:27:31.964Z,0.40
2018-12-27T11:30:12.607Z,0.50
2018-12-27T11:32:53.164Z,0.50
2018-12-27T11:35:33.901Z,0.50
2018-12-27T11:38:14.880Z,0.50
2018-12-27T11:40:55.449Z,0.50
2018-12-27T11:43:36.032Z,0.50
2018-12-27T11:46:16.703Z,0.60
2018-12-27T11:48:57.404Z,0.50
2018-12-27T11:51:38.548Z,0.50
2018-12-27T11:54:19.204Z,0.60
2018-12-27T11:57:00.036Z,0.60
2018-12-27T11:59:40.634Z,0.60
2018-12-27T12:02:21.353Z,0.60
2018-12-27T12:05:02.166Z,0.50
2018-12-27T12:07:42.984Z,0.50
2018-12-27T12:10:24.025Z,0.50
2018-12-27T12:13:04.958Z,0.60
2018-12-27T12:15:45.931Z,0.60
2018-12-27T12:18:26.760Z,0.70
2018-12-27T12:21:07.884Z,0.70
2018-12-27T12:23:48.437Z,0.70
2018-12-27T12:26:29.319Z,0.90
2018-12-27T12:29:09.544Z,0.90
2018-12-27T12:31:50.544Z,0.80
2018-12-27T12:34:31.420Z,0.80
2018-12-27T12:37:14.209Z,0.80
2018-12-27T12:39:55.054Z,0.80
2018-12-27T12:42:35.751Z,0.80
2018-12-27T12:45:16.932Z,0.90
2018-12-27T12:47:57.707Z,0.90
2018-12-27T12:50:38.160Z,0.90
2018-12-27T12:53:18.569Z,0.90
2018-12-27T12:55:59.466Z,0.90
2018-12-27T12:58:39.889Z,1.00
2018-12-27T13:01:20.738Z,1.00
2018-12-27T13:04:01.271Z,1.00
2018-12-27T13:06:42.129Z,1.00
2018-12-27T13:09:22.724Z,1.00
2018-12-27T13:12:03.292Z,0.90
2018-12-27T13:14:44.072Z,0.90
2018-12-27T13:17:24.885Z,1.00
2018-12-27T13:20:05.276Z,1.00
2018-12-27T13:22:46.045Z,1.10
2018-12-27T13:25:26.852Z,1.10
2018-12-27T13:28:07.413Z,1.10
2018-12-27T13:30:47.969Z,1.00
2018-12-27T13:33:28.607Z,1.00
2018-12-27T13:36:09.512Z,1.10
2018-12-27T13:38:50.045Z,1.10
2018-12-27T13:41:30.568Z,1.10
2018-12-27T13:44:11.473Z,1.20
2018-12-27T13:46:51.942Z,1.20
2018-12-27T13:49:32.719Z,1.10
2018-12-27T13:52:13.628Z,1.20
2018-12-27T13:54:54.693Z,1.20
2018-12-27T13:57:35.264Z,1.20
2018-12-27T14:00:15.951Z,1.10
2018-12-27T14:02:56.449Z,1.10
2018-12-27T14:05:37.075Z,1.00
2018-12-27T14:08:18.847Z,1.10
2018-12-27T14:10:59.224Z,1.20
2018-12-27T14:13:40.017Z,1.20
2018-12-27T14:16:20.608Z,1.20
2018-12-27T14:19:01.634Z,1.10
2018-12-27T14:21:42.815Z,1.10
2018-12-27T14:24:23.522Z,1.10
2018-12-27T14:27:04.413Z,1.10
2018-12-27T14:29:45.046Z,1.00
2018-12-27T14:32:25.879Z,1.00
2018-12-27T14:35:06.581Z,1.00
2018-12-27T14:37:47.343Z,1.10
2018-12-27T14:40:28.073Z,1.10
2018-12-27T14:43:08.772Z,1.10
2018-12-27T14:45:49.504Z,1.10
2018-12-27T14:48:30.700Z,1.10
2018-12-27T14:51:11.409Z,1.00
2018-12-27T14:53:51.864Z,1.00
2018-12-27T14:56:32.504Z,1.10
2018-12-27T14:59:13.382Z,1.10
2018-12-27T15:01:54.234Z,1.10
2018-12-27T15:04:35.210Z,1.00
2018-12-27T15:07:16.020Z,1.00
2018-12-27T15:09:56.551Z,1.10
2018-12-27T15:12:37.079Z,1.10
2018-12-27T15:15:17.740Z,1.00
2018-12-27T15:17:58.581Z,1.10
2018-12-27T15:20:39.506Z,1.10
2018-12-27T15:23:20.526Z,1.10
2018-12-27T15:26:00.980Z,1.10
2018-12-27T15:28:41.863Z,1.10
2018-12-27T15:31:22.395Z,1.10
2018-12-27T15:34:03.372Z,1.00
2018-12-27T15:36:44.445Z,1.10
2018-12-27T15:39:25.335Z,1.10
2018-12-27T15:42:06.088Z,1.00
2018-12-27T15:44:46.984Z,1.00
2018-12-27T15:47:27.889Z,1.00
2018-12-27T15:50:08.656Z,1.00
2018-12-27T15:52:49.362Z,1.00
2018-12-27T15:55:30.038Z,1.00
2018-12-27T15:58:10.893Z,1.00
2018-12-27T16:00:51.429Z,1.00
2018-12-27T16:03:31.970Z,1.00
2018-12-27T16:06:13.096Z,1.00
2018-12-27T16:08:53.820Z,1.00
2018-12-27T16:11:34.320Z,0.90
2018-12-27T16:14:15.003Z,1.00
2018-12-27T16:16:55.921Z,0.90
2018-12-27T16:19:36.748Z,0.80
2018-12-27T16:22:17.543Z,0.90
2018-12-27T16:24:58.040Z,0.90
2018-12-27T16:27:39.077Z,0.90
2018-12-27T16:30:19.952Z,0.90
2018-12-27T16:33:00.911Z,0.80
2018-12-27T16:35:41.756Z,0.80
2018-12-27T16:38:22.540Z,0.80
2018-12-27T16:41:03.296Z,0.80
2018-12-27T16:43:43.984Z,0.80
2018-12-27T16:46:25.209Z,0.80
2018-12-27T16:49:05.823Z,0.80
2018-12-27T16:51:46.483Z,0.80
2018-12-27T16:54:27.117Z,0.70
2018-12-27T16:57:08.046Z,0.70
2018-12-27T16:59:48.861Z,0.80
2018-12-27T17:02:29.864Z,0.80
2018-12-27T17:05:10.458Z,0.70
2018-12-27T17:07:51.298Z,0.70
2018-12-27T17:10:32.249Z,0.70
2018-12-27T17:13:12.993Z,0.70
2018-12-27T17:15:54.224Z,0.70
2018-12-27T17:18:35.355Z,0.70
2018-12-27T17:21:15.718Z,0.80
2018-12-27T17:23:56.821Z,0.80
2018-12-27T17:26:37.031Z,0.80
2018-12-27T17:29:17.991Z,0.80
2018-12-27T17:31:58.832Z,0.80
2018-12-27T17:34:39.399Z,0.80
2018-12-27T17:37:23.315Z,0.80
2018-12-27T17:40:02.597Z,0.80
2018-12-27T17:42:43.227Z,0.80
2018-12-27T17:45:23.996Z,0.80
2018-12-27T17:48:07.946Z,0.80
2018-12-27T17:50:48.400Z,0.80
2018-12-27T17:53:29.076Z,0.80
2018-12-27T17:56:09.917Z,0.80
2018-12-27T17:58:50.731Z,0.70
2018-12-27T18:01:31.418Z,0.70
2018-12-27T18:04:12.469Z,0.70
2018-12-27T18:06:53.208Z,0.60
2018-12-27T18:09:33.684Z,0.80
2018-12-27T18:12:14.693Z,0.70
2018-12-27T18:14:55.050Z,0.80
2018-12-27T18:17:35.681Z,0.80
2018-12-27T18:20:16.961Z,0.80
2018-12-27T18:22:57.296Z,0.90
2018-12-27T18:25:38.215Z,0.80
2018-12-27T18:28:18.825Z,0.90
2018-12-27T18:30:59.348Z,0.80
2018-12-27T18:33:39.941Z,0.80
2018-12-27T18:36:20.667Z,0.80
2018-12-27T18:39:01.428Z,0.90
2018-12-27T18:41:42.194Z,0.80
2018-12-27T18:44:22.904Z,0.90
2018-12-27T18:47:03.912Z,0.80
2018-12-27T18:49:45.011Z,0.90
2018-12-27T18:52:26.052Z,0.90
2018-12-27T18:55:07.725Z,0.90
2018-12-27T18:57:48.604Z,0.80
2018-12-27T19:00:29.344Z,0.80
2018-12-27T19:03:10.154Z,0.80
2018-12-27T19:05:50.763Z,0.70
2018-12-27T19:08:31.530Z,0.80
2018-12-27T19:11:12.344Z,0.80
2018-12-27T19:13:52.826Z,0.60
2018-12-27T19:16:33.300Z,0.60
2018-12-27T19:19:14.195Z,0.60
2018-12-27T19:21:54.993Z,0.70
2018-12-27T19:24:35.283Z,0.70
2018-12-27T19:27:16.429Z,0.70
2018-12-27T19:29:56.846Z,0.70
2018-12-27T19:32:37.360Z,0.70
2018-12-27T19:35:18.096Z,0.70
2018-12-27T19:37:59.089Z,0.70
2018-12-27T19:40:40.096Z,0.70
2018-12-27T19:43:21.009Z,0.80
2018-12-27T19:46:01.561Z,0.80
2018-12-27T19:48:42.898Z,0.80
2018-12-27T19:51:23.832Z,0.70
2018-12-27T19:54:04.280Z,0.80
2018-12-27T19:56:45.277Z,0.80
2018-12-27T19:59:26.086Z,0.80
2018-12-27T20:02:06.666Z,0.90
2018-12-27T20:04:47.284Z,0.70
2018-12-27T20:07:28.170Z,0.80
2018-12-27T20:10:08.829Z,0.80
2018-12-27T20:12:49.517Z,0.80
2018-12-27T20:15:29.956Z,0.80
2018-12-27T20:18:10.884Z,0.80
2018-12-27T20:20:51.343Z,0.80
2018-12-27T20:23:32.232Z,0.80
2018-12-27T20:26:13.227Z,0.80
2018-12-27T20:28:53.943Z,0.80
2018-12-27T20:31:22.256Z,0.80
2018-12-27T20:33:50.800Z,0.80
2018-12-27T20:36:19.121Z,0.90
2018-12-27T20:38:47.394Z,0.80
2018-12-27T20:41:15.684Z,0.80
2018-12-27T20:43:44.019Z,0.80
2018-12-27T20:46:12.268Z,0.80
2018-12-27T20:48:40.559Z,0.80
2018-12-27T20:51:08.894Z,0.80
2018-12-27T20:53:37.174Z,0.80
2018-12-27T20:56:05.416Z,0.80
2018-12-27T20:58:33.709Z,0.80
2018-12-27T21:01:01.978Z,0.80
2018-12-27T21:03:30.260Z,0.80
2018-12-27T21:05:58.518Z,0.80
2018-12-27T21:08:26.856Z,0.80
2018-12-27T21:10:55.184Z,0.90
2018-12-27T21:13:23.476Z,0.80
2018-12-27T21:15:51.732Z,0.80
2018-12-27T21:18:20.040Z,0.80
2018-12-27T21:20:48.544Z,0.90
2018-12-27T21:23:16.818Z,0.80
2018-12-27T21:25:45.080Z,0.80
2018-12-27T21:28:13.358Z,0.80
2018-12-27T21:30:41.716Z,0.80
2018-12-27T21:33:10.339Z,0.80
2018-12-27T21:35:38.661Z,0.90
2018-12-27T21:38:06.898Z,0.90
2018-12-27T21:40:35.174Z,0.90
2018-12-27T21:43:03.427Z,0.90
2018-12-27T21:45:31.947Z,0.90
2018-12-27T21:48:00.221Z,0.90
2018-12-27T21:50:28.518Z,0.90
2018-12-27T21:52:56.758Z,0.90
2018-12-27T21:55:25.033Z,0.90
2018-12-27T21:57:53.586Z,0.90
2018-12-27T22:00:21.959Z,0.90
2018-12-27T22:02:50.219Z,0.90
2018-12-27T22:05:18.522Z,0.90
2018-12-27T22:07:46.771Z,0.90
2018-12-27T22:10:15.053Z,0.90
2018-12-27T22:12:43.309Z,0.90
2018-12-27T22:15:11.578Z,0.90
2018-12-27T22:17:39.865Z,0.80
2018-12-27T22:20:08.433Z,0.80
2018-12-27T22:22:36.700Z,0.80
2018-12-27T22:25:05.334Z,0.80
2018-12-27T22:27:33.580Z,0.80
2018-12-27T22:30:01.922Z,0.80
2018-12-27T22:32:30.183Z,0.80
2018-12-27T22:34:58.457Z,0.80
2018-12-27T22:37:27.105Z,0.80
2018-12-27T22:39:55.456Z,0.80
2018-12-27T22:42:23.881Z,0.90
2018-12-27T22:44:52.178Z,0.90
2018-12-27T22:47:20.432Z,0.90
2018-12-27T22:49:48.935Z,0.80
2018-12-27T22:52:17.204Z,0.90
2018-12-27T22:54:45.743Z,0.90
2018-12-27T22:57:14.298Z,0.90
2018-12-27T22:59:42.548Z,0.80
2018-12-27T23:02:10.819Z,0.90
2018-12-27T23:04:39.073Z,0.90
2018-12-27T23:07:07.357Z,0.90
2018-12-27T23:09:35.624Z,1.00
2018-12-27T23:12:03.913Z,0.90
2018-12-27T23:14:32.170Z,0.90
2018-12-27T23:17:00.450Z,0.90
2018-12-27T23:19:28.765Z,0.90
2018-12-27T23:21:57.028Z,0.90
2018-12-27T23:24:25.275Z,0.90
2018-12-27T23:26:53.552Z,0.90
2018-12-27T23:29:21.803Z,0.90
2018-12-27T23:31:50.059Z,0.90
2018-12-27T23:34:18.582Z,0.80
2018-12-27T23:36:46.851Z,0.80
2018-12-27T23:39:15.104Z,0.90
2018-12-27T23:41:43.372Z,0.90
2018-12-27T23:44:11.621Z,0.90
2018-12-27T23:46:39.885Z,0.90
2018-12-27T23:49:08.133Z,0.90
2018-12-27T23:51:36.402Z,0.90
2018-12-27T23:54:04.648Z,0.90
2018-12-27T23:56:32.920Z,0.90
2018-12-27T23:59:01.162Z,0.90
